sensor_id;sensor_type;location;lat;lon;timestamp;pressure;altitude;pressure_sealevel;temperature;humidity
22572;BME280;11452;53.368;14.658;2023-02-15T00:02:05;102728.55;;;2.55;75.79
22572;BME280;11452;53.368;14.658;2023-02-15T00:07:10;102720.61;;;2.54;76.07
22572;BME280;11452;53.368;14.658;2023-02-15T00:12:16;102715.37;;;2.57;76.30
22572;BME280;11452;53.368;14.658;2023-02-15T00:17:22;102713.58;;;2.54;75.85
22572;BME280;11452;53.368;14.658;2023-02-15T00:22:27;102702.96;;;2.48;76.22
22572;BME280;11452;53.368;14.658;2023-02-15T00:27:33;102704.65;;;2.41;76.28
22572;BME280;11452;53.368;14.658;2023-02-15T00:32:39;102698.94;;;2.39;76.21
22572;BME280;11452;53.368;14.658;2023-02-15T00:37:44;102697.92;;;2.26;76.50
22572;BME280;11452;53.368;14.658;2023-02-15T00:42:50;102695.83;;;2.36;76.82
22572;BME280;11452;53.368;14.658;2023-02-15T00:47:55;102697.09;;;2.32;76.62
22572;BME280;11452;53.368;14.658;2023-02-15T00:53:01;102690.13;;;2.37;77.26
22572;BME280;11452;53.368;14.658;2023-02-15T00:58:07;102686.50;;;2.27;76.93
22572;BME280;11452;53.368;14.658;2023-02-15T01:03:15;102680.72;;;2.19;76.84
22572;BME280;11452;53.368;14.658;2023-02-15T01:08:21;102682.92;;;2.19;77.30
22572;BME280;11452;53.368;14.658;2023-02-15T01:13:26;102684.69;;;2.23;77.32
22572;BME280;11452;53.368;14.658;2023-02-15T01:18:32;102689.80;;;2.06;77.10
22572;BME280;11452;53.368;14.658;2023-02-15T01:23:39;102687.66;;;2.11;77.54
22572;BME280;11452;53.368;14.658;2023-02-15T01:28:45;102678.58;;;2.27;77.97
22572;BME280;11452;53.368;14.658;2023-02-15T01:33:52;102670.63;;;2.24;77.76
22572;BME280;11452;53.368;14.658;2023-02-15T01:38:58;102672.94;;;2.34;78.07
22572;BME280;11452;53.368;14.658;2023-02-15T01:44:40;102675.64;;;2.40;77.76
22572;BME280;11452;53.368;14.658;2023-02-15T01:49:19;102667.26;;;2.37;77.33
22572;BME280;11452;53.368;14.658;2023-02-15T01:54:32;102667.63;;;2.31;77.31
22572;BME280;11452;53.368;14.658;2023-02-15T01:59:42;102664.02;;;2.20;77.06
22572;BME280;11452;53.368;14.658;2023-02-15T02:04:51;102663.59;;;2.20;77.03
22572;BME280;11452;53.368;14.658;2023-02-15T02:10:00;102660.37;;;2.08;76.75
22572;BME280;11452;53.368;14.658;2023-02-15T02:15:09;102649.81;;;2.07;76.83
22572;BME280;11452;53.368;14.658;2023-02-15T02:20:59;102644.09;;;2.03;76.75
22572;BME280;11452;53.368;14.658;2023-02-15T02:31:43;102632.19;;;2.00;76.75
22572;BME280;11452;53.368;14.658;2023-02-15T02:47:55;102614.23;;;2.08;76.73
22572;BME280;11452;53.368;14.658;2023-02-15T02:52:57;102608.50;;;2.07;76.86
22572;BME280;11452;53.368;14.658;2023-02-15T03:03:55;102589.31;;;2.25;77.26
22572;BME280;11452;53.368;14.658;2023-02-15T03:09:01;102588.41;;;2.19;76.75
22572;BME280;11452;53.368;14.658;2023-02-15T03:14:05;102586.95;;;2.06;76.65
22572;BME280;11452;53.368;14.658;2023-02-15T03:19:17;102578.13;;;2.00;76.58
22572;BME280;11452;53.368;14.658;2023-02-15T03:24:25;102569.19;;;1.83;76.32
22572;BME280;11452;53.368;14.658;2023-02-15T03:29:32;102568.77;;;1.88;76.84
22572;BME280;11452;53.368;14.658;2023-02-15T03:34:39;102564.84;;;1.89;76.74
22572;BME280;11452;53.368;14.658;2023-02-15T03:45:08;102555.30;;;2.05;77.16
22572;BME280;11452;53.368;14.658;2023-02-15T03:50:24;102555.75;;;2.06;76.91
22572;BME280;11452;53.368;14.658;2023-02-15T03:55:52;102557.95;;;2.03;76.85
22572;BME280;11452;53.368;14.658;2023-02-15T04:01:05;102560.52;;;1.96;76.75
22572;BME280;11452;53.368;14.658;2023-02-15T04:06:29;102547.33;;;1.96;76.94
22572;BME280;11452;53.368;14.658;2023-02-15T04:11:35;102541.63;;;1.96;76.92
22572;BME280;11452;53.368;14.658;2023-02-15T04:16:40;102536.33;;;1.95;76.78
22572;BME280;11452;53.368;14.658;2023-02-15T04:21:45;102540.24;;;1.90;76.55
22572;BME280;11452;53.368;14.658;2023-02-15T04:27:09;102534.09;;;1.91;76.91
22572;BME280;11452;53.368;14.658;2023-02-15T04:32:14;102526.69;;;1.97;77.09
22572;BME280;11452;53.368;14.658;2023-02-15T04:37:20;102522.67;;;1.91;76.95
22572;BME280;11452;53.368;14.658;2023-02-15T04:42:26;102517.37;;;1.88;77.17
22572;BME280;11452;53.368;14.658;2023-02-15T04:47:33;102518.70;;;1.89;77.39
22572;BME280;11452;53.368;14.658;2023-02-15T04:52:39;102510.78;;;1.88;77.56
22572;BME280;11452;53.368;14.658;2023-02-15T04:57:45;102499.02;;;1.98;77.91
22572;BME280;11452;53.368;14.658;2023-02-15T05:02:51;102491.14;;;2.06;77.62
22572;BME280;11452;53.368;14.658;2023-02-15T05:07:57;102489.75;;;1.94;77.40
22572;BME280;11452;53.368;14.658;2023-02-15T05:13:02;102484.45;;;1.91;77.67
22572;BME280;11452;53.368;14.658;2023-02-15T05:18:08;102483.53;;;1.84;77.87
22572;BME280;11452;53.368;14.658;2023-02-15T05:23:14;102481.84;;;1.94;78.51
22572;BME280;11452;53.368;14.658;2023-02-15T05:28:21;102475.31;;;2.04;78.89
22572;BME280;11452;53.368;14.658;2023-02-15T05:33:27;102460.05;;;2.19;78.79
22572;BME280;11452;53.368;14.658;2023-02-15T05:38:33;102457.87;;;2.22;78.68
22572;BME280;11452;53.368;14.658;2023-02-15T05:43:40;102458.25;;;2.14;78.50
22572;BME280;11452;53.368;14.658;2023-02-15T05:48:46;102452.50;;;2.09;78.37
22572;BME280;11452;53.368;14.658;2023-02-15T05:53:51;102463.48;;;2.09;78.42
22572;BME280;11452;53.368;14.658;2023-02-15T05:58:57;102459.56;;;2.14;78.33
22572;BME280;11452;53.368;14.658;2023-02-15T06:04:03;102459.02;;;1.97;77.82
22572;BME280;11452;53.368;14.658;2023-02-15T06:09:09;102457.61;;;1.84;77.65
22572;BME280;11452;53.368;14.658;2023-02-15T06:14:16;102458.44;;;1.78;77.69
22572;BME280;11452;53.368;14.658;2023-02-15T06:19:21;102459.73;;;1.77;77.68
22572;BME280;11452;53.368;14.658;2023-02-15T06:24:27;102454.41;;;1.70;77.53
22572;BME280;11452;53.368;14.658;2023-02-15T06:29:32;102443.91;;;1.73;77.71
22572;BME280;11452;53.368;14.658;2023-02-15T06:34:38;102441.39;;;1.92;78.30
22572;BME280;11452;53.368;14.658;2023-02-15T06:39:43;102427.48;;;2.14;78.58
22572;BME280;11452;53.368;14.658;2023-02-15T06:44:49;102427.59;;;2.35;78.66
22572;BME280;11452;53.368;14.658;2023-02-15T06:49:54;102422.34;;;2.40;78.17
22572;BME280;11452;53.368;14.658;2023-02-15T06:55:01;102422.25;;;2.20;77.53
22572;BME280;11452;53.368;14.658;2023-02-15T07:00:08;102436.67;;;2.09;77.49
22572;BME280;11452;53.368;14.658;2023-02-15T07:05:13;102437.55;;;2.04;77.32
22572;BME280;11452;53.368;14.658;2023-02-15T07:10:19;102437.52;;;2.01;77.28
22572;BME280;11452;53.368;14.658;2023-02-15T07:15:24;102434.02;;;2.02;77.27
22572;BME280;11452;53.368;14.658;2023-02-15T07:20:30;102421.31;;;2.12;77.42
22572;BME280;11452;53.368;14.658;2023-02-15T07:25:39;102416.13;;;2.29;77.77
22572;BME280;11452;53.368;14.658;2023-02-15T07:30:44;102417.52;;;2.41;77.54
22572;BME280;11452;53.368;14.658;2023-02-15T07:35:54;102415.34;;;2.50;77.50
22572;BME280;11452;53.368;14.658;2023-02-15T07:41:09;102407.45;;;2.54;77.26
22572;BME280;11452;53.368;14.658;2023-02-15T07:46:15;102398.66;;;2.61;77.14
22572;BME280;11452;53.368;14.658;2023-02-15T07:51:21;102386.36;;;2.66;77.23
22572;BME280;11452;53.368;14.658;2023-02-15T07:56:26;102373.19;;;2.80;77.27
22572;BME280;11452;53.368;14.658;2023-02-15T08:01:34;102369.27;;;2.89;77.23
22572;BME280;11452;53.368;14.658;2023-02-15T08:06:40;102358.70;;;2.98;76.98
22572;BME280;11452;53.368;14.658;2023-02-15T08:11:47;102359.61;;;3.09;76.93
22572;BME280;11452;53.368;14.658;2023-02-15T08:16:55;102354.31;;;3.22;77.12
22572;BME280;11452;53.368;14.658;2023-02-15T08:22:03;102354.31;;;3.40;77.19
22572;BME280;11452;53.368;14.658;2023-02-15T08:27:11;102345.92;;;3.62;77.28
22572;BME280;11452;53.368;14.658;2023-02-15T08:32:16;102341.48;;;3.79;76.98
22572;BME280;11452;53.368;14.658;2023-02-15T08:37:22;102333.48;;;3.97;77.03
22572;BME280;11452;53.368;14.658;2023-02-15T08:42:28;102326.81;;;4.12;76.78
22572;BME280;11452;53.368;14.658;2023-02-15T08:47:34;102324.09;;;4.31;76.91
22572;BME280;11452;53.368;14.658;2023-02-15T08:52:39;102321.33;;;4.53;76.98
22572;BME280;11452;53.368;14.658;2023-02-15T08:57:45;102310.57;;;4.81;76.90
22572;BME280;11452;53.368;14.658;2023-02-15T09:02:54;102306.91;;;4.99;76.39
22572;BME280;11452;53.368;14.658;2023-02-15T09:08:00;102301.06;;;5.10;75.81
22572;BME280;11452;53.368;14.658;2023-02-15T09:13:05;102300.07;;;5.20;75.93
22572;BME280;11452;53.368;14.658;2023-02-15T09:18:11;102300.27;;;5.00;75.39
22572;BME280;11452;53.368;14.658;2023-02-15T09:23:18;102302.34;;;5.60;75.24
22572;BME280;11452;53.368;14.658;2023-02-15T09:28:25;102302.34;;;5.60;75.24
22572;BME280;11452;53.368;14.658;2023-02-15T09:33:32;102300.91;;;5.72;75.14
22572;BME280;11452;53.368;14.658;2023-02-15T09:38:38;102296.05;;;5.71;74.22
22572;BME280;11452;53.368;14.658;2023-02-15T09:48:55;102286.41;;;6.03;74.57
22572;BME280;11452;53.368;14.658;2023-02-15T10:15:03;102269.66;;;6.63;73.12
22572;BME280;11452;53.368;14.658;2023-02-15T10:20:41;102280.45;;;6.80;72.78
22572;BME280;11452;53.368;14.658;2023-02-15T10:26:01;102274.20;;;6.83;72.01
22572;BME280;11452;53.368;14.658;2023-02-15T10:31:13;102260.17;;;6.73;72.02
22572;BME280;11452;53.368;14.658;2023-02-15T11:08:57;102223.22;;;7.58;70.43
22572;BME280;11452;53.368;14.658;2023-02-15T11:14:14;102217.64;;;7.70;70.65
22572;BME280;11452;53.368;14.658;2023-02-15T11:19:22;102200.70;;;7.74;70.20
22572;BME280;11452;53.368;14.658;2023-02-15T11:24:30;102196.59;;;7.99;70.09
22572;BME280;11452;53.368;14.658;2023-02-15T11:30:02;102195.71;;;7.99;69.77
22572;BME280;11452;53.368;14.658;2023-02-15T11:41:09;102194.77;;;8.02;68.11
22572;BME280;11452;53.368;14.658;2023-02-15T11:45:35;102190.52;;;7.74;68.17
22572;BME280;11452;53.368;14.658;2023-02-15T11:50:42;102191.56;;;7.65;68.05
22572;BME280;11452;53.368;14.658;2023-02-15T11:55:49;102190.18;;;7.68;68.75
22572;BME280;11452;53.368;14.658;2023-02-15T12:01:00;102178.00;;;7.79;68.21
22572;BME280;11452;53.368;14.658;2023-02-15T12:06:06;102171.03;;;8.31;69.65
22572;BME280;11452;53.368;14.658;2023-02-15T12:11:25;102160.62;;;8.57;68.83
22572;BME280;11452;53.368;14.658;2023-02-15T12:16:25;102163.59;;;8.81;68.88
22572;BME280;11452;53.368;14.658;2023-02-15T12:21:34;102158.34;;;9.10;68.75
22572;BME280;11452;53.368;14.658;2023-02-15T12:26:41;102155.05;;;9.33;68.83
22572;BME280;11452;53.368;14.658;2023-02-15T12:31:49;102149.34;;;9.76;68.40
22572;BME280;11452;53.368;14.658;2023-02-15T12:36:57;102147.25;;;9.86;67.73
22572;BME280;11452;53.368;14.658;2023-02-15T12:42:16;102135.67;;;9.57;65.35
22572;BME280;11452;53.368;14.658;2023-02-15T12:47:24;102134.20;;;10.04;67.15
22572;BME280;11452;53.368;14.658;2023-02-15T12:52:32;102127.97;;;10.20;65.25
22572;BME280;11452;53.368;14.658;2023-02-15T12:57:38;102124.38;;;10.48;65.98
22572;BME280;11452;53.368;14.658;2023-02-15T13:02:57;102122.92;;;10.64;64.96
22572;BME280;11452;53.368;14.658;2023-02-15T13:13:19;102107.22;;;10.93;64.25
22572;BME280;11452;53.368;14.658;2023-02-15T13:18:38;102105.41;;;10.55;63.04
22572;BME280;11452;53.368;14.658;2023-02-15T13:24:05;102089.37;;;10.29;62.85
22572;BME280;11452;53.368;14.658;2023-02-15T13:29:10;102088.17;;;10.24;62.44
22572;BME280;11452;53.368;14.658;2023-02-15T13:39:47;102075.77;;;10.61;62.52
22572;BME280;11452;53.368;14.658;2023-02-15T13:55:39;102071.36;;;10.85;62.25
22572;BME280;11452;53.368;14.658;2023-02-15T14:16:46;102056.13;;;10.75;61.19
22572;BME280;11452;53.368;14.658;2023-02-15T14:21:57;102043.81;;;10.45;60.96
22572;BME280;11452;53.368;14.658;2023-02-15T14:32:24;102042.59;;;10.55;61.39
22572;BME280;11452;53.368;14.658;2023-02-15T14:37:42;102037.36;;;10.64;61.37
22572;BME280;11452;53.368;14.658;2023-02-15T14:43:04;102031.24;;;10.60;61.22
22572;BME280;11452;53.368;14.658;2023-02-15T14:48:16;102013.59;;;10.56;61.06
22572;BME280;11452;53.368;14.658;2023-02-15T14:53:33;102019.98;;;10.64;61.24
22572;BME280;11452;53.368;14.658;2023-02-15T14:58:54;102014.98;;;10.55;61.20
22572;BME280;11452;53.368;14.658;2023-02-15T15:04:03;102011.79;;;10.57;61.11
22572;BME280;11452;53.368;14.658;2023-02-15T15:36:28;101974.39;;;10.04;61.62
22572;BME280;11452;53.368;14.658;2023-02-15T15:46:47;101972.11;;;9.80;62.00
22572;BME280;11452;53.368;14.658;2023-02-15T15:51:51;101984.91;;;9.69;62.13
22572;BME280;11452;53.368;14.658;2023-02-15T15:57:02;101971.52;;;9.57;62.21
22572;BME280;11452;53.368;14.658;2023-02-15T16:02:11;101968.25;;;9.48;62.37
22572;BME280;11452;53.368;14.658;2023-02-15T16:12:28;101971.84;;;9.19;62.53
22572;BME280;11452;53.368;14.658;2023-02-15T16:17:34;101972.44;;;8.84;62.09
22572;BME280;11452;53.368;14.658;2023-02-15T16:22:40;101967.68;;;8.64;62.75
22572;BME280;11452;53.368;14.658;2023-02-15T16:27:47;101958.91;;;8.45;63.01
22572;BME280;11452;53.368;14.658;2023-02-15T16:32:56;101959.84;;;8.26;63.08
22572;BME280;11452;53.368;14.658;2023-02-15T16:38:02;101963.48;;;8.06;63.52
22572;BME280;11452;53.368;14.658;2023-02-15T16:43:16;101965.08;;;7.79;63.91
22572;BME280;11452;53.368;14.658;2023-02-15T16:48:24;101955.66;;;7.64;64.09
22572;BME280;11452;53.368;14.658;2023-02-15T16:53:32;101947.08;;;7.53;64.67
22572;BME280;11452;53.368;14.658;2023-02-15T16:58:45;101942.20;;;7.35;64.57
22572;BME280;11452;53.368;14.658;2023-02-15T17:04:11;101955.60;;;6.90;64.72
22572;BME280;11452;53.368;14.658;2023-02-15T17:09:13;101946.23;;;6.72;65.61
22572;BME280;11452;53.368;14.658;2023-02-15T17:14:20;101945.15;;;6.62;65.87
22572;BME280;11452;53.368;14.658;2023-02-15T17:19:40;101955.16;;;6.49;66.19
22572;BME280;11452;53.368;14.658;2023-02-15T17:24:42;101963.39;;;6.34;66.50
22572;BME280;11452;53.368;14.658;2023-02-15T17:30:00;101962.28;;;6.23;66.92
22572;BME280;11452;53.368;14.658;2023-02-15T17:35:16;101950.06;;;6.13;67.01
22572;BME280;11452;53.368;14.658;2023-02-15T17:40:24;101951.27;;;5.95;67.14
22572;BME280;11452;53.368;14.658;2023-02-15T17:45:35;101938.69;;;5.79;68.00
22572;BME280;11452;53.368;14.658;2023-02-15T17:50:41;101938.69;;;5.79;68.00
22572;BME280;11452;53.368;14.658;2023-02-15T17:55:47;101931.66;;;5.77;68.50
22572;BME280;11452;53.368;14.658;2023-02-15T18:00:54;101938.53;;;5.63;68.16
22572;BME280;11452;53.368;14.658;2023-02-15T18:06:19;101931.47;;;5.05;68.18
22572;BME280;11452;53.368;14.658;2023-02-15T18:11:44;101931.47;;;5.05;68.18
22572;BME280;11452;53.368;14.658;2023-02-15T18:16:51;101923.91;;;5.09;69.69
22572;BME280;11452;53.368;14.658;2023-02-15T18:21:58;101927.84;;;5.12;69.81
22572;BME280;11452;53.368;14.658;2023-02-15T18:27:04;101931.48;;;5.04;69.67
22572;BME280;11452;53.368;14.658;2023-02-15T18:32:15;101929.20;;;4.79;69.74
22572;BME280;11452;53.368;14.658;2023-02-15T18:37:22;101926.98;;;4.80;70.37
22572;BME280;11452;53.368;14.658;2023-02-15T18:42:30;101910.59;;;4.82;70.72
22572;BME280;11452;53.368;14.658;2023-02-15T18:47:37;101903.12;;;4.82;71.03
22572;BME280;11452;53.368;14.658;2023-02-15T18:52:45;101893.77;;;4.86;71.62
22572;BME280;11452;53.368;14.658;2023-02-15T18:57:54;101891.48;;;4.92;71.79
22572;BME280;11452;53.368;14.658;2023-02-15T19:03:00;101882.27;;;4.87;71.48
22572;BME280;11452;53.368;14.658;2023-02-15T19:08:12;101869.97;;;4.83;71.94
22572;BME280;11452;53.368;14.658;2023-02-15T19:13:15;101869.76;;;4.67;71.63
22572;BME280;11452;53.368;14.658;2023-02-15T19:18:21;101863.75;;;4.56;71.78
22572;BME280;11452;53.368;14.658;2023-02-15T19:23:26;101859.50;;;4.44;71.88
22572;BME280;11452;53.368;14.658;2023-02-15T19:28:33;101850.97;;;4.21;71.87
22572;BME280;11452;53.368;14.658;2023-02-15T19:33:39;101844.80;;;4.21;72.37
22572;BME280;11452;53.368;14.658;2023-02-15T19:38:46;101842.33;;;4.07;72.23
22572;BME280;11452;53.368;14.658;2023-02-15T19:43:54;101835.74;;;4.04;72.61
22572;BME280;11452;53.368;14.658;2023-02-15T19:49:00;101830.79;;;4.11;73.12
22572;BME280;11452;53.368;14.658;2023-02-15T19:54:33;101825.88;;;4.16;73.13
22572;BME280;11452;53.368;14.658;2023-02-15T19:59:37;101819.43;;;4.04;72.88
22572;BME280;11452;53.368;14.658;2023-02-15T20:04:43;101824.77;;;4.00;73.24
22572;BME280;11452;53.368;14.658;2023-02-15T20:09:49;101821.75;;;3.93;73.50
22572;BME280;11452;53.368;14.658;2023-02-15T20:14:56;101822.29;;;3.86;73.42
22572;BME280;11452;53.368;14.658;2023-02-15T20:20:02;101813.46;;;3.87;73.92
22572;BME280;11452;53.368;14.658;2023-02-15T20:25:18;101818.30;;;3.89;74.11
22572;BME280;11452;53.368;14.658;2023-02-15T20:30:20;101813.51;;;3.82;73.92
22572;BME280;11452;53.368;14.658;2023-02-15T20:35:27;101810.96;;;3.72;73.93
22572;BME280;11452;53.368;14.658;2023-02-15T20:40:34;101797.41;;;3.63;74.08
22572;BME280;11452;53.368;14.658;2023-02-15T20:45:40;101784.70;;;3.57;74.36
22572;BME280;11452;53.368;14.658;2023-02-15T20:50:45;101782.61;;;3.47;74.02
22572;BME280;11452;53.368;14.658;2023-02-15T20:55:51;101778.27;;;3.40;74.39
22572;BME280;11452;53.368;14.658;2023-02-15T21:00:58;101779.27;;;3.30;74.48
22572;BME280;11452;53.368;14.658;2023-02-15T21:06:04;101770.52;;;3.22;74.46
22572;BME280;11452;53.368;14.658;2023-02-15T21:11:18;101771.16;;;3.00;74.44
22572;BME280;11452;53.368;14.658;2023-02-15T21:16:33;101772.55;;;2.92;74.96
22572;BME280;11452;53.368;14.658;2023-02-15T21:21:38;101782.73;;;2.82;74.72
22572;BME280;11452;53.368;14.658;2023-02-15T21:26:45;101771.38;;;2.75;75.16
22572;BME280;11452;53.368;14.658;2023-02-15T21:31:52;101780.17;;;2.74;75.00
22572;BME280;11452;53.368;14.658;2023-02-15T21:36:58;101768.73;;;2.75;75.35
22572;BME280;11452;53.368;14.658;2023-02-15T21:42:08;101767.00;;;2.71;75.39
22572;BME280;11452;53.368;14.658;2023-02-15T21:47:31;101768.36;;;2.64;75.37
22572;BME280;11452;53.368;14.658;2023-02-15T21:52:57;101764.45;;;2.59;75.41
22572;BME280;11452;53.368;14.658;2023-02-15T21:58:03;101765.81;;;2.53;75.65
22572;BME280;11452;53.368;14.658;2023-02-15T22:03:11;101774.16;;;2.53;75.55
22572;BME280;11452;53.368;14.658;2023-02-15T22:08:17;101772.87;;;2.48;75.76
22572;BME280;11452;53.368;14.658;2023-02-15T22:13:29;101768.91;;;2.48;75.75
22572;BME280;11452;53.368;14.658;2023-02-15T22:18:35;101771.12;;;2.46;75.84
22572;BME280;11452;53.368;14.658;2023-02-15T22:23:40;101776.39;;;2.46;75.98
22572;BME280;11452;53.368;14.658;2023-02-15T22:28:46;101787.45;;;2.37;75.84
22572;BME280;11452;53.368;14.658;2023-02-15T22:33:51;101777.34;;;2.35;75.99
22572;BME280;11452;53.368;14.658;2023-02-15T22:38:58;101779.09;;;2.41;76.16
22572;BME280;11452;53.368;14.658;2023-02-15T22:44:04;101775.59;;;2.36;76.02
22572;BME280;11452;53.368;14.658;2023-02-15T22:49:11;101773.38;;;2.38;76.19
22572;BME280;11452;53.368;14.658;2023-02-15T22:54:18;101765.37;;;2.51;76.79
22572;BME280;11452;53.368;14.658;2023-02-15T22:59:27;101764.83;;;2.66;76.80
22572;BME280;11452;53.368;14.658;2023-02-15T23:04:36;101752.03;;;2.72;76.96
22572;BME280;11452;53.368;14.658;2023-02-15T23:09:41;101751.05;;;2.84;77.35
22572;BME280;11452;53.368;14.658;2023-02-15T23:14:47;101755.74;;;3.01;77.52
22572;BME280;11452;53.368;14.658;2023-02-15T23:19:52;101748.70;;;3.01;77.22
22572;BME280;11452;53.368;14.658;2023-02-15T23:24:58;101744.88;;;2.86;76.77
22572;BME280;11452;53.368;14.658;2023-02-15T23:30:14;101740.63;;;2.67;76.86
22572;BME280;11452;53.368;14.658;2023-02-15T23:35:20;101735.39;;;2.61;77.17
22572;BME280;11452;53.368;14.658;2023-02-15T23:40:26;101730.09;;;2.64;76.88
22572;BME280;11452;53.368;14.658;2023-02-15T23:45:49;101723.48;;;2.65;77.22
22572;BME280;11452;53.368;14.658;2023-02-15T23:50:55;101715.54;;;2.70;77.13
22572;BME280;11452;53.368;14.658;2023-02-15T23:56:01;101705.86;;;2.70;77.15
